sensor_id;sensor_type;location;lat;lon;timestamp;temperature;humidity
64062;DHT22;50308;47.438;-1.528;2023-07-20T00:00:36;19.90;70.80
64062;DHT22;50308;47.438;-1.528;2023-07-20T00:03:12;19.80;70.70
64062;DHT22;50308;47.438;-1.528;2023-07-20T00:05:43;19.80;71.00
64062;DHT22;50308;47.438;-1.528;2023-07-20T00:08:10;19.70;71.00
64062;DHT22;50308;47.438;-1.528;2023-07-20T00:10:36;19.70;71.10
64062;DHT22;50308;47.438;-1.528;2023-07-20T00:13:02;19.70;70.80
64062;DHT22;50308;47.438;-1.528;2023-07-20T00:15:28;19.80;70.70
64062;DHT22;50308;47.438;-1.528;2023-07-20T00:17:57;19.70;70.90
64062;DHT22;50308;47.438;-1.528;2023-07-20T00:20:26;19.70;71.00
64062;DHT22;50308;47.438;-1.528;2023-07-20T00:22:52;19.60;70.90
64062;DHT22;50308;47.438;-1.528;2023-07-20T00:25:24;19.60;71.10
64062;DHT22;50308;47.438;-1.528;2023-07-20T00:27:50;19.50;71.30
64062;DHT22;50308;47.438;-1.528;2023-07-20T00:30:17;19.50;71.20
64062;DHT22;50308;47.438;-1.528;2023-07-20T00:32:44;19.50;71.20
64062;DHT22;50308;47.438;-1.528;2023-07-20T00:35:13;19.50;71.20
64062;DHT22;50308;47.438;-1.528;2023-07-20T00:37:40;19.40;71.30
64062;DHT22;50308;47.438;-1.528;2023-07-20T00:40:07;19.40;71.40
64062;DHT22;50308;47.438;-1.528;2023-07-20T00:42:33;19.40;71.40
64062;DHT22;50308;47.438;-1.528;2023-07-20T00:45:00;19.30;71.50
64062;DHT22;50308;47.438;-1.528;2023-07-20T00:47:29;19.30;71.40
64062;DHT22;50308;47.438;-1.528;2023-07-20T00:49:56;19.20;71.60
64062;DHT22;50308;47.438;-1.528;2023-07-20T00:52:28;19.20;71.70
64062;DHT22;50308;47.438;-1.528;2023-07-20T00:54:54;19.10;71.70
64062;DHT22;50308;47.438;-1.528;2023-07-20T00:57:23;19.20;71.60
64062;DHT22;50308;47.438;-1.528;2023-07-20T00:59:50;19.20;71.70
64062;DHT22;50308;47.438;-1.528;2023-07-20T01:02:16;19.20;71.70
64062;DHT22;50308;47.438;-1.528;2023-07-20T01:04:42;19.30;71.50
64062;DHT22;50308;47.438;-1.528;2023-07-20T01:07:18;19.20;71.70
64062;DHT22;50308;47.438;-1.528;2023-07-20T01:10:03;19.20;71.60
64062;DHT22;50308;47.438;-1.528;2023-07-20T01:12:47;19.10;71.70
64062;DHT22;50308;47.438;-1.528;2023-07-20T01:15:13;19.10;71.70
64062;DHT22;50308;47.438;-1.528;2023-07-20T01:17:39;19.10;71.90
64062;DHT22;50308;47.438;-1.528;2023-07-20T01:20:07;19.20;71.80
64062;DHT22;50308;47.438;-1.528;2023-07-20T01:23:17;19.20;71.80
64062;DHT22;50308;47.438;-1.528;2023-07-20T01:31:34;19.10;71.50
64062;DHT22;50308;47.438;-1.528;2023-07-20T01:34:09;19.10;71.40
64062;DHT22;50308;47.438;-1.528;2023-07-20T01:36:38;19.00;71.80
64062;DHT22;50308;47.438;-1.528;2023-07-20T01:39:04;18.90;72.20
64062;DHT22;50308;47.438;-1.528;2023-07-20T01:41:31;18.80;72.10
64062;DHT22;50308;47.438;-1.528;2023-07-20T01:43:58;18.80;72.20
64062;DHT22;50308;47.438;-1.528;2023-07-20T01:46:31;18.90;72.10
64062;DHT22;50308;47.438;-1.528;2023-07-20T01:48:57;18.90;72.00
64062;DHT22;50308;47.438;-1.528;2023-07-20T01:51:26;18.90;72.00
64062;DHT22;50308;47.438;-1.528;2023-07-20T01:53:52;18.90;72.00
64062;DHT22;50308;47.438;-1.528;2023-07-20T01:56:21;18.80;71.90
64062;DHT22;50308;47.438;-1.528;2023-07-20T01:58:47;18.80;72.10
64062;DHT22;50308;47.438;-1.528;2023-07-20T02:01:13;18.80;72.10
64062;DHT22;50308;47.438;-1.528;2023-07-20T02:03:38;18.70;72.00
64062;DHT22;50308;47.438;-1.528;2023-07-20T02:06:07;18.70;72.00
64062;DHT22;50308;47.438;-1.528;2023-07-20T02:08:32;18.70;72.00
64062;DHT22;50308;47.438;-1.528;2023-07-20T02:10:58;18.70;71.90
64062;DHT22;50308;47.438;-1.528;2023-07-20T02:13:30;18.70;71.90
64062;DHT22;50308;47.438;-1.528;2023-07-20T02:15:56;18.70;72.00
64062;DHT22;50308;47.438;-1.528;2023-07-20T02:18:27;18.80;72.00
64062;DHT22;50308;47.438;-1.528;2023-07-20T02:20:56;18.70;71.90
64062;DHT22;50308;47.438;-1.528;2023-07-20T02:23:23;18.70;72.00
64062;DHT22;50308;47.438;-1.528;2023-07-20T02:25:49;18.70;71.90
64062;DHT22;50308;47.438;-1.528;2023-07-20T02:28:15;18.60;71.90
64062;DHT22;50308;47.438;-1.528;2023-07-20T02:30:40;18.60;72.00
64062;DHT22;50308;47.438;-1.528;2023-07-20T02:33:07;18.60;71.80
64062;DHT22;50308;47.438;-1.528;2023-07-20T02:35:33;18.60;71.80
64062;DHT22;50308;47.438;-1.528;2023-07-20T02:37:59;18.60;71.60
64062;DHT22;50308;47.438;-1.528;2023-07-20T02:40:25;18.50;71.90
64062;DHT22;50308;47.438;-1.528;2023-07-20T02:42:50;18.50;72.00
64062;DHT22;50308;47.438;-1.528;2023-07-20T02:45:16;18.60;72.00
64062;DHT22;50308;47.438;-1.528;2023-07-20T02:47:42;18.60;71.80
64062;DHT22;50308;47.438;-1.528;2023-07-20T02:50:08;18.60;71.70
64062;DHT22;50308;47.438;-1.528;2023-07-20T02:52:34;18.60;71.70
64062;DHT22;50308;47.438;-1.528;2023-07-20T02:54:59;18.60;71.50
64062;DHT22;50308;47.438;-1.528;2023-07-20T02:57:25;18.60;71.70
64062;DHT22;50308;47.438;-1.528;2023-07-20T02:59:51;18.50;72.00
64062;DHT22;50308;47.438;-1.528;2023-07-20T03:02:16;18.40;72.20
64062;DHT22;50308;47.438;-1.528;2023-07-20T03:04:42;18.50;72.20
64062;DHT22;50308;47.438;-1.528;2023-07-20T03:07:08;18.50;72.00
64062;DHT22;50308;47.438;-1.528;2023-07-20T03:09:33;18.40;71.80
64062;DHT22;50308;47.438;-1.528;2023-07-20T03:11:59;18.40;72.00
64062;DHT22;50308;47.438;-1.528;2023-07-20T03:14:25;18.40;72.10
64062;DHT22;50308;47.438;-1.528;2023-07-20T03:16:51;18.40;72.40
64062;DHT22;50308;47.438;-1.528;2023-07-20T03:19:17;18.40;72.40
64062;DHT22;50308;47.438;-1.528;2023-07-20T03:21:43;18.40;72.30
64062;DHT22;50308;47.438;-1.528;2023-07-20T03:24:09;18.40;72.10
64062;DHT22;50308;47.438;-1.528;2023-07-20T03:26:35;18.40;72.10
64062;DHT22;50308;47.438;-1.528;2023-07-20T03:29:01;18.40;72.40
64062;DHT22;50308;47.438;-1.528;2023-07-20T03:31:26;18.40;72.20
64062;DHT22;50308;47.438;-1.528;2023-07-20T03:33:52;18.40;72.30
64062;DHT22;50308;47.438;-1.528;2023-07-20T03:36:18;18.40;72.30
64062;DHT22;50308;47.438;-1.528;2023-07-20T03:38:43;18.40;72.10
64062;DHT22;50308;47.438;-1.528;2023-07-20T03:41:09;18.40;72.40
64062;DHT22;50308;47.438;-1.528;2023-07-20T03:43:37;18.40;72.00
64062;DHT22;50308;47.438;-1.528;2023-07-20T03:46:03;18.40;72.00
64062;DHT22;50308;47.438;-1.528;2023-07-20T03:48:33;18.40;72.20
64062;DHT22;50308;47.438;-1.528;2023-07-20T03:50:58;18.30;72.10
64062;DHT22;50308;47.438;-1.528;2023-07-20T03:53:25;18.30;72.00
64062;DHT22;50308;47.438;-1.528;2023-07-20T03:55:52;18.30;72.10
64062;DHT22;50308;47.438;-1.528;2023-07-20T03:58:19;18.20;72.20
64062;DHT22;50308;47.438;-1.528;2023-07-20T04:00:46;18.20;73.30
64062;DHT22;50308;47.438;-1.528;2023-07-20T04:03:16;18.20;72.20
64062;DHT22;50308;47.438;-1.528;2023-07-20T04:05:42;18.30;72.10
64062;DHT22;50308;47.438;-1.528;2023-07-20T04:08:08;18.20;72.20
64062;DHT22;50308;47.438;-1.528;2023-07-20T04:10:35;18.30;72.30
64062;DHT22;50308;47.438;-1.528;2023-07-20T04:13:01;18.30;72.30
64062;DHT22;50308;47.438;-1.528;2023-07-20T04:15:26;18.30;72.40
64062;DHT22;50308;47.438;-1.528;2023-07-20T04:17:52;18.30;72.40
64062;DHT22;50308;47.438;-1.528;2023-07-20T04:20:18;18.40;72.30
64062;DHT22;50308;47.438;-1.528;2023-07-20T04:22:44;18.40;72.00
64062;DHT22;50308;47.438;-1.528;2023-07-20T04:25:09;18.30;72.30
64062;DHT22;50308;47.438;-1.528;2023-07-20T04:27:36;18.30;72.30
64062;DHT22;50308;47.438;-1.528;2023-07-20T04:30:02;18.30;72.50
64062;DHT22;50308;47.438;-1.528;2023-07-20T04:32:29;18.30;72.60
64062;DHT22;50308;47.438;-1.528;2023-07-20T04:34:54;18.40;72.60
64062;DHT22;50308;47.438;-1.528;2023-07-20T04:37:20;18.50;72.40
64062;DHT22;50308;47.438;-1.528;2023-07-20T04:39:46;18.40;72.40
64062;DHT22;50308;47.438;-1.528;2023-07-20T04:42:11;18.40;72.60
64062;DHT22;50308;47.438;-1.528;2023-07-20T04:44:37;18.40;72.60
64062;DHT22;50308;47.438;-1.528;2023-07-20T04:47:03;18.50;72.70
64062;DHT22;50308;47.438;-1.528;2023-07-20T04:49:28;18.50;72.50
64062;DHT22;50308;47.438;-1.528;2023-07-20T04:51:54;18.50;72.70
64062;DHT22;50308;47.438;-1.528;2023-07-20T04:54:20;18.40;72.50
64062;DHT22;50308;47.438;-1.528;2023-07-20T04:56:45;18.40;72.70
64062;DHT22;50308;47.438;-1.528;2023-07-20T04:59:11;18.40;72.80
64062;DHT22;50308;47.438;-1.528;2023-07-20T05:01:37;18.40;73.00
64062;DHT22;50308;47.438;-1.528;2023-07-20T05:04:03;18.40;73.00
64062;DHT22;50308;47.438;-1.528;2023-07-20T05:06:29;18.40;73.00
64062;DHT22;50308;47.438;-1.528;2023-07-20T05:08:55;18.30;73.30
64062;DHT22;50308;47.438;-1.528;2023-07-20T05:11:21;18.30;73.40
64062;DHT22;50308;47.438;-1.528;2023-07-20T05:13:46;18.30;73.30
64062;DHT22;50308;47.438;-1.528;2023-07-20T05:16:12;18.40;73.30
64062;DHT22;50308;47.438;-1.528;2023-07-20T05:18:38;18.40;73.30
64062;DHT22;50308;47.438;-1.528;2023-07-20T05:21:05;18.30;73.30
64062;DHT22;50308;47.438;-1.528;2023-07-20T05:23:31;18.40;73.40
64062;DHT22;50308;47.438;-1.528;2023-07-20T05:25:58;18.40;73.50
64062;DHT22;50308;47.438;-1.528;2023-07-20T05:28:25;18.40;73.60
64062;DHT22;50308;47.438;-1.528;2023-07-20T05:30:52;18.40;73.80
64062;DHT22;50308;47.438;-1.528;2023-07-20T05:33:19;18.40;73.80
64062;DHT22;50308;47.438;-1.528;2023-07-20T05:35:44;18.40;73.60
64062;DHT22;50308;47.438;-1.528;2023-07-20T05:38:10;18.50;73.70
64062;DHT22;50308;47.438;-1.528;2023-07-20T05:40:40;18.50;73.70
64062;DHT22;50308;47.438;-1.528;2023-07-20T05:43:06;18.50;74.00
64062;DHT22;50308;47.438;-1.528;2023-07-20T05:45:32;18.50;74.00
64062;DHT22;50308;47.438;-1.528;2023-07-20T05:47:58;18.50;74.00
64062;DHT22;50308;47.438;-1.528;2023-07-20T05:50:23;18.60;74.00
64062;DHT22;50308;47.438;-1.528;2023-07-20T05:52:52;18.50;74.00
64062;DHT22;50308;47.438;-1.528;2023-07-20T05:55:18;18.60;74.10
64062;DHT22;50308;47.438;-1.528;2023-07-20T05:57:43;18.70;74.00
64062;DHT22;50308;47.438;-1.528;2023-07-20T06:00:10;18.70;74.00
64062;DHT22;50308;47.438;-1.528;2023-07-20T06:02:35;18.70;74.20
64062;DHT22;50308;47.438;-1.528;2023-07-20T06:05:01;18.70;74.10
64062;DHT22;50308;47.438;-1.528;2023-07-20T06:07:27;18.70;74.20
64062;DHT22;50308;47.438;-1.528;2023-07-20T06:09:53;18.80;74.40
64062;DHT22;50308;47.438;-1.528;2023-07-20T06:12:18;18.80;74.40
64062;DHT22;50308;47.438;-1.528;2023-07-20T06:14:44;18.90;74.50
64062;DHT22;50308;47.438;-1.528;2023-07-20T06:17:10;18.90;74.70
64062;DHT22;50308;47.438;-1.528;2023-07-20T06:19:35;19.00;74.70
64062;DHT22;50308;47.438;-1.528;2023-07-20T06:22:02;19.10;74.90
64062;DHT22;50308;47.438;-1.528;2023-07-20T06:24:27;19.10;75.00
64062;DHT22;50308;47.438;-1.528;2023-07-20T06:26:53;19.10;75.10
64062;DHT22;50308;47.438;-1.528;2023-07-20T06:29:19;19.20;75.20
64062;DHT22;50308;47.438;-1.528;2023-07-20T06:31:44;19.20;75.20
64062;DHT22;50308;47.438;-1.528;2023-07-20T06:34:10;19.20;75.20
64062;DHT22;50308;47.438;-1.528;2023-07-20T06:36:36;19.30;75.30
64062;DHT22;50308;47.438;-1.528;2023-07-20T06:39:02;19.40;75.30
64062;DHT22;50308;47.438;-1.528;2023-07-20T06:41:28;19.40;75.40
64062;DHT22;50308;47.438;-1.528;2023-07-20T06:43:53;19.40;75.60
64062;DHT22;50308;47.438;-1.528;2023-07-20T06:46:26;19.50;75.50
64062;DHT22;50308;47.438;-1.528;2023-07-20T06:48:52;19.50;75.30
64062;DHT22;50308;47.438;-1.528;2023-07-20T06:51:19;19.60;75.10
64062;DHT22;50308;47.438;-1.528;2023-07-20T06:53:44;19.70;75.10
64062;DHT22;50308;47.438;-1.528;2023-07-20T06:56:10;19.70;75.30
64062;DHT22;50308;47.438;-1.528;2023-07-20T06:58:36;19.70;75.30
64062;DHT22;50308;47.438;-1.528;2023-07-20T07:01:06;19.70;75.60
64062;DHT22;50308;47.438;-1.528;2023-07-20T10:22:31;21.80;66.70
64062;DHT22;50308;47.438;-1.528;2023-07-20T10:27:15;21.80;67.10
64062;DHT22;50308;47.438;-1.528;2023-07-20T10:29:41;21.80;67.80
64062;DHT22;50308;47.438;-1.528;2023-07-20T10:32:09;21.80;68.30
64062;DHT22;50308;47.438;-1.528;2023-07-20T10:34:35;21.90;68.40
64062;DHT22;50308;47.438;-1.528;2023-07-20T10:37:00;21.90;68.00
64062;DHT22;50308;47.438;-1.528;2023-07-20T10:39:31;21.90;67.80
64062;DHT22;50308;47.438;-1.528;2023-07-20T10:42:07;21.90;68.20
64062;DHT22;50308;47.438;-1.528;2023-07-20T10:44:33;21.90;67.70
64062;DHT22;50308;47.438;-1.528;2023-07-20T10:47:00;21.90;68.00
64062;DHT22;50308;47.438;-1.528;2023-07-20T10:49:26;21.90;67.90
64062;DHT22;50308;47.438;-1.528;2023-07-20T10:51:58;21.90;68.10
64062;DHT22;50308;47.438;-1.528;2023-07-20T10:56:52;21.90;67.80
64062;DHT22;50308;47.438;-1.528;2023-07-20T11:01:59;22.00;67.60
64062;DHT22;50308;47.438;-1.528;2023-07-20T11:07:05;22.00;66.90
64062;DHT22;50308;47.438;-1.528;2023-07-20T11:09:35;22.00;67.00
64062;DHT22;50308;47.438;-1.528;2023-07-20T11:12:20;22.00;67.40
64062;DHT22;50308;47.438;-1.528;2023-07-20T11:14:58;22.10;67.10
64062;DHT22;50308;47.438;-1.528;2023-07-20T11:17:31;22.00;67.10
64062;DHT22;50308;47.438;-1.528;2023-07-20T11:20:01;22.10;67.00
64062;DHT22;50308;47.438;-1.528;2023-07-20T11:22:27;22.10;67.10
64062;DHT22;50308;47.438;-1.528;2023-07-20T11:24:56;22.10;66.80
64062;DHT22;50308;47.438;-1.528;2023-07-20T11:27:22;22.10;67.00
64062;DHT22;50308;47.438;-1.528;2023-07-20T11:29:48;22.10;67.00
64062;DHT22;50308;47.438;-1.528;2023-07-20T11:32:24;22.10;66.90
64062;DHT22;50308;47.438;-1.528;2023-07-20T11:34:50;22.10;66.80
64062;DHT22;50308;47.438;-1.528;2023-07-20T11:37:17;22.10;66.90
64062;DHT22;50308;47.438;-1.528;2023-07-20T11:39:43;22.10;66.50
64062;DHT22;50308;47.438;-1.528;2023-07-20T11:42:09;22.10;66.50
64062;DHT22;50308;47.438;-1.528;2023-07-20T11:44:35;22.10;66.60
64062;DHT22;50308;47.438;-1.528;2023-07-20T11:47:07;22.10;66.80
64062;DHT22;50308;47.438;-1.528;2023-07-20T11:49:40;22.10;66.80
64062;DHT22;50308;47.438;-1.528;2023-07-20T11:52:07;22.10;66.90
64062;DHT22;50308;47.438;-1.528;2023-07-20T11:54:34;22.10;66.90
64062;DHT22;50308;47.438;-1.528;2023-07-20T11:57:03;22.10;66.50
64062;DHT22;50308;47.438;-1.528;2023-07-20T11:59:31;22.10;66.60
64062;DHT22;50308;47.438;-1.528;2023-07-20T12:01:58;22.10;66.60
64062;DHT22;50308;47.438;-1.528;2023-07-20T12:04:24;22.10;66.60
64062;DHT22;50308;47.438;-1.528;2023-07-20T12:06:49;22.10;66.60
64062;DHT22;50308;47.438;-1.528;2023-07-20T12:09:17;22.10;66.50
64062;DHT22;50308;47.438;-1.528;2023-07-20T12:11:43;22.10;66.50
64062;DHT22;50308;47.438;-1.528;2023-07-20T12:14:12;22.10;66.50
64062;DHT22;50308;47.438;-1.528;2023-07-20T12:16:38;22.10;66.40
64062;DHT22;50308;47.438;-1.528;2023-07-20T12:19:08;22.10;66.50
64062;DHT22;50308;47.438;-1.528;2023-07-20T12:21:35;22.10;66.50
64062;DHT22;50308;47.438;-1.528;2023-07-20T12:24:06;22.10;66.30
64062;DHT22;50308;47.438;-1.528;2023-07-20T12:26:33;22.20;66.30
64062;DHT22;50308;47.438;-1.528;2023-07-20T12:28:59;22.10;66.30
64062;DHT22;50308;47.438;-1.528;2023-07-20T12:31:26;22.20;65.70
64062;DHT22;50308;47.438;-1.528;2023-07-20T12:33:53;22.10;65.30
64062;DHT22;50308;47.438;-1.528;2023-07-20T12:36:20;22.20;65.40
64062;DHT22;50308;47.438;-1.528;2023-07-20T12:38:46;22.20;65.50
64062;DHT22;50308;47.438;-1.528;2023-07-20T12:41:12;22.20;65.40
64062;DHT22;50308;47.438;-1.528;2023-07-20T12:43:42;22.20;64.10
64062;DHT22;50308;47.438;-1.528;2023-07-20T12:46:09;22.20;65.00
64062;DHT22;50308;47.438;-1.528;2023-07-20T12:48:36;22.20;65.10
64062;DHT22;50308;47.438;-1.528;2023-07-20T12:51:06;22.20;65.00
64062;DHT22;50308;47.438;-1.528;2023-07-20T12:53:33;22.20;65.50
64062;DHT22;50308;47.438;-1.528;2023-07-20T12:55:59;22.20;65.10
64062;DHT22;50308;47.438;-1.528;2023-07-20T12:58:25;22.20;65.50
64062;DHT22;50308;47.438;-1.528;2023-07-20T13:00:50;22.20;65.60
64062;DHT22;50308;47.438;-1.528;2023-07-20T13:03:16;22.20;65.60
64062;DHT22;50308;47.438;-1.528;2023-07-20T13:05:44;22.20;65.00
64062;DHT22;50308;47.438;-1.528;2023-07-20T13:08:10;22.20;66.10
64062;DHT22;50308;47.438;-1.528;2023-07-20T13:10:36;22.30;64.70
64062;DHT22;50308;47.438;-1.528;2023-07-20T13:13:02;22.20;64.70
64062;DHT22;50308;47.438;-1.528;2023-07-20T13:15:42;22.20;64.80
64062;DHT22;50308;47.438;-1.528;2023-07-20T13:18:07;22.30;64.50
64062;DHT22;50308;47.438;-1.528;2023-07-20T13:20:33;22.30;64.70
64062;DHT22;50308;47.438;-1.528;2023-07-20T13:22:59;22.20;64.80
64062;DHT22;50308;47.438;-1.528;2023-07-20T13:25:25;22.30;64.70
64062;DHT22;50308;47.438;-1.528;2023-07-20T13:27:50;22.30;64.40
64062;DHT22;50308;47.438;-1.528;2023-07-20T13:30:16;22.30;64.90
64062;DHT22;50308;47.438;-1.528;2023-07-20T13:32:45;22.30;64.60
64062;DHT22;50308;47.438;-1.528;2023-07-20T13:35:14;22.30;64.60
64062;DHT22;50308;47.438;-1.528;2023-07-20T13:37:41;22.30;64.90
64062;DHT22;50308;47.438;-1.528;2023-07-20T13:40:07;22.30;65.10
64062;DHT22;50308;47.438;-1.528;2023-07-20T13:42:37;22.30;65.00
64062;DHT22;50308;47.438;-1.528;2023-07-20T13:45:03;22.30;65.10
64062;DHT22;50308;47.438;-1.528;2023-07-20T13:47:29;22.30;64.50
64062;DHT22;50308;47.438;-1.528;2023-07-20T13:49:55;22.30;65.10
64062;DHT22;50308;47.438;-1.528;2023-07-20T13:52:21;22.30;64.90
64062;DHT22;50308;47.438;-1.528;2023-07-20T13:54:47;22.30;65.00
64062;DHT22;50308;47.438;-1.528;2023-07-20T13:57:13;22.30;64.40
64062;DHT22;50308;47.438;-1.528;2023-07-20T13:59:38;22.30;64.70
64062;DHT22;50308;47.438;-1.528;2023-07-20T14:02:05;22.30;64.80
64062;DHT22;50308;47.438;-1.528;2023-07-20T14:04:30;22.30;64.70
64062;DHT22;50308;47.438;-1.528;2023-07-20T14:06:56;22.30;64.90
64062;DHT22;50308;47.438;-1.528;2023-07-20T14:09:21;22.30;64.70
64062;DHT22;50308;47.438;-1.528;2023-07-20T14:11:48;22.30;64.00
64062;DHT22;50308;47.438;-1.528;2023-07-20T14:14:13;22.30;64.30
64062;DHT22;50308;47.438;-1.528;2023-07-20T14:16:39;22.30;64.70
64062;DHT22;50308;47.438;-1.528;2023-07-20T14:19:05;22.30;64.70
64062;DHT22;50308;47.438;-1.528;2023-07-20T14:21:31;22.40;64.60
64062;DHT22;50308;47.438;-1.528;2023-07-20T14:23:56;22.30;64.60
64062;DHT22;50308;47.438;-1.528;2023-07-20T14:26:23;22.40;64.70
64062;DHT22;50308;47.438;-1.528;2023-07-20T14:28:49;22.40;64.60
64062;DHT22;50308;47.438;-1.528;2023-07-20T14:31:15;22.40;64.70
64062;DHT22;50308;47.438;-1.528;2023-07-20T14:33:40;22.40;64.40
64062;DHT22;50308;47.438;-1.528;2023-07-20T14:36:06;22.40;64.50
64062;DHT22;50308;47.438;-1.528;2023-07-20T14:38:33;22.40;64.50
64062;DHT22;50308;47.438;-1.528;2023-07-20T14:40:59;22.40;64.50
64062;DHT22;50308;47.438;-1.528;2023-07-20T14:43:25;22.40;64.50
64062;DHT22;50308;47.438;-1.528;2023-07-20T14:45:51;22.40;64.50
64062;DHT22;50308;47.438;-1.528;2023-07-20T14:48:16;22.40;64.20
64062;DHT22;50308;47.438;-1.528;2023-07-20T14:50:42;22.40;64.00
64062;DHT22;50308;47.438;-1.528;2023-07-20T14:53:11;22.40;64.40
64062;DHT22;50308;47.438;-1.528;2023-07-20T14:55:37;22.40;64.10
64062;DHT22;50308;47.438;-1.528;2023-07-20T14:58:03;22.40;64.10
64062;DHT22;50308;47.438;-1.528;2023-07-20T15:00:28;22.40;64.30
64062;DHT22;50308;47.438;-1.528;2023-07-20T15:02:55;22.40;64.00
64062;DHT22;50308;47.438;-1.528;2023-07-20T15:05:22;22.40;63.90
64062;DHT22;50308;47.438;-1.528;2023-07-20T15:07:48;22.40;63.80
64062;DHT22;50308;47.438;-1.528;2023-07-20T15:10:15;22.40;64.00
64062;DHT22;50308;47.438;-1.528;2023-07-20T15:12:40;22.50;64.10
64062;DHT22;50308;47.438;-1.528;2023-07-20T15:15:08;22.50;63.90
64062;DHT22;50308;47.438;-1.528;2023-07-20T15:17:35;22.50;63.70
64062;DHT22;50308;47.438;-1.528;2023-07-20T15:20:02;22.40;64.00
64062;DHT22;50308;47.438;-1.528;2023-07-20T15:22:32;22.50;63.40
64062;DHT22;50308;47.438;-1.528;2023-07-20T15:24:57;22.40;63.50
64062;DHT22;50308;47.438;-1.528;2023-07-20T15:27:23;22.50;63.40
64062;DHT22;50308;47.438;-1.528;2023-07-20T15:29:49;22.50;63.50
64062;DHT22;50308;47.438;-1.528;2023-07-20T15:32:17;22.50;63.60
64062;DHT22;50308;47.438;-1.528;2023-07-20T15:34:43;22.50;63.50
64062;DHT22;50308;47.438;-1.528;2023-07-20T15:37:10;22.50;63.30
64062;DHT22;50308;47.438;-1.528;2023-07-20T15:39:36;22.50;63.50
64062;DHT22;50308;47.438;-1.528;2023-07-20T15:42:02;22.50;63.30
64062;DHT22;50308;47.438;-1.528;2023-07-20T15:44:28;22.50;63.40
64062;DHT22;50308;47.438;-1.528;2023-07-20T15:46:54;22.50;63.00
64062;DHT22;50308;47.438;-1.528;2023-07-20T15:49:20;22.50;62.90
64062;DHT22;50308;47.438;-1.528;2023-07-20T15:51:46;22.50;63.40
64062;DHT22;50308;47.438;-1.528;2023-07-20T15:54:12;22.50;63.00
64062;DHT22;50308;47.438;-1.528;2023-07-20T15:56:39;22.50;63.00
64062;DHT22;50308;47.438;-1.528;2023-07-20T15:59:06;22.60;62.50
64062;DHT22;50308;47.438;-1.528;2023-07-20T16:01:32;22.60;62.80
64062;DHT22;50308;47.438;-1.528;2023-07-20T16:03:58;22.60;62.60
64062;DHT22;50308;47.438;-1.528;2023-07-20T16:06:24;22.70;62.60
64062;DHT22;50308;47.438;-1.528;2023-07-20T16:08:50;22.60;62.30
64062;DHT22;50308;47.438;-1.528;2023-07-20T16:11:18;22.60;62.50
64062;DHT22;50308;47.438;-1.528;2023-07-20T16:13:45;22.60;62.80
64062;DHT22;50308;47.438;-1.528;2023-07-20T16:16:11;22.60;62.80
64062;DHT22;50308;47.438;-1.528;2023-07-20T16:18:37;22.50;62.80
64062;DHT22;50308;47.438;-1.528;2023-07-20T16:21:03;22.60;62.80
64062;DHT22;50308;47.438;-1.528;2023-07-20T16:23:29;22.60;62.70
64062;DHT22;50308;47.438;-1.528;2023-07-20T16:25:55;22.60;62.50
64062;DHT22;50308;47.438;-1.528;2023-07-20T16:28:21;22.70;61.80
64062;DHT22;50308;47.438;-1.528;2023-07-20T16:30:47;22.70;61.90
64062;DHT22;50308;47.438;-1.528;2023-07-20T16:33:12;22.70;61.80
64062;DHT22;50308;47.438;-1.528;2023-07-20T16:35:39;22.70;61.80
64062;DHT22;50308;47.438;-1.528;2023-07-20T16:38:06;22.70;62.00
64062;DHT22;50308;47.438;-1.528;2023-07-20T16:40:31;22.70;62.40
64062;DHT22;50308;47.438;-1.528;2023-07-20T16:42:57;22.70;62.40
64062;DHT22;50308;47.438;-1.528;2023-07-20T16:45:23;22.60;63.00
64062;DHT22;50308;47.438;-1.528;2023-07-20T16:47:49;22.70;62.70
64062;DHT22;50308;47.438;-1.528;2023-07-20T16:50:14;22.70;62.30
64062;DHT22;50308;47.438;-1.528;2023-07-20T16:52:41;22.70;62.70
64062;DHT22;50308;47.438;-1.528;2023-07-20T16:55:07;22.70;62.60
64062;DHT22;50308;47.438;-1.528;2023-07-20T16:57:33;22.70;62.80
64062;DHT22;50308;47.438;-1.528;2023-07-20T16:59:59;22.70;62.80
64062;DHT22;50308;47.438;-1.528;2023-07-20T17:02:24;22.70;63.10
64062;DHT22;50308;47.438;-1.528;2023-07-20T17:04:50;22.70;62.70
64062;DHT22;50308;47.438;-1.528;2023-07-20T17:07:16;22.70;62.60
64062;DHT22;50308;47.438;-1.528;2023-07-20T17:09:41;22.70;62.30
64062;DHT22;50308;47.438;-1.528;2023-07-20T17:12:08;22.70;62.30
64062;DHT22;50308;47.438;-1.528;2023-07-20T17:14:35;22.70;61.80
64062;DHT22;50308;47.438;-1.528;2023-07-20T17:17:03;22.70;61.80
64062;DHT22;50308;47.438;-1.528;2023-07-20T17:19:28;22.70;61.80
64062;DHT22;50308;47.438;-1.528;2023-07-20T17:21:54;22.70;62.40
64062;DHT22;50308;47.438;-1.528;2023-07-20T17:24:20;22.70;62.40
64062;DHT22;50308;47.438;-1.528;2023-07-20T17:26:45;22.70;62.10
64062;DHT22;50308;47.438;-1.528;2023-07-20T17:29:11;22.70;61.40
64062;DHT22;50308;47.438;-1.528;2023-07-20T17:31:37;22.70;61.40
64062;DHT22;50308;47.438;-1.528;2023-07-20T17:34:02;22.70;61.20
64062;DHT22;50308;47.438;-1.528;2023-07-20T17:36:28;22.70;60.80
64062;DHT22;50308;47.438;-1.528;2023-07-20T17:38:54;22.70;60.70
64062;DHT22;50308;47.438;-1.528;2023-07-20T17:41:20;22.70;60.50
64062;DHT22;50308;47.438;-1.528;2023-07-20T17:43:46;22.70;60.70
64062;DHT22;50308;47.438;-1.528;2023-07-20T17:46:12;22.60;59.80
64062;DHT22;50308;47.438;-1.528;2023-07-20T17:48:38;22.70;60.40
64062;DHT22;50308;47.438;-1.528;2023-07-20T17:51:03;22.70;60.80
64062;DHT22;50308;47.438;-1.528;2023-07-20T17:53:29;22.70;60.10
64062;DHT22;50308;47.438;-1.528;2023-07-20T17:55:55;22.70;60.20
64062;DHT22;50308;47.438;-1.528;2023-07-20T17:58:21;22.70;59.60
64062;DHT22;50308;47.438;-1.528;2023-07-20T18:00:46;22.60;59.80
64062;DHT22;50308;47.438;-1.528;2023-07-20T18:03:12;22.70;60.00
64062;DHT22;50308;47.438;-1.528;2023-07-20T18:05:38;22.60;59.10
64062;DHT22;50308;47.438;-1.528;2023-07-20T18:08:04;22.60;60.10
64062;DHT22;50308;47.438;-1.528;2023-07-20T18:10:30;22.60;59.60
64062;DHT22;50308;47.438;-1.528;2023-07-20T18:12:55;22.60;59.50
64062;DHT22;50308;47.438;-1.528;2023-07-20T18:15:21;22.60;59.30
64062;DHT22;50308;47.438;-1.528;2023-07-20T18:17:47;22.60;59.00
64062;DHT22;50308;47.438;-1.528;2023-07-20T18:20:12;22.60;60.00
64062;DHT22;50308;47.438;-1.528;2023-07-20T18:22:38;22.60;59.70
64062;DHT22;50308;47.438;-1.528;2023-07-20T18:25:05;22.60;59.30
64062;DHT22;50308;47.438;-1.528;2023-07-20T18:27:31;22.60;59.80
64062;DHT22;50308;47.438;-1.528;2023-07-20T18:29:57;22.50;58.80
64062;DHT22;50308;47.438;-1.528;2023-07-20T18:32:23;22.50;59.60
64062;DHT22;50308;47.438;-1.528;2023-07-20T18:34:49;22.60;59.80
64062;DHT22;50308;47.438;-1.528;2023-07-20T18:37:15;22.60;60.30
64062;DHT22;50308;47.438;-1.528;2023-07-20T18:39:48;22.60;59.60
64062;DHT22;50308;47.438;-1.528;2023-07-20T18:42:14;22.50;60.00
64062;DHT22;50308;47.438;-1.528;2023-07-20T18:44:40;22.50;59.90
64062;DHT22;50308;47.438;-1.528;2023-07-20T18:47:07;22.50;59.70